sensor_id;sensor_type;location;lat;lon;timestamp;pressure;altitude;pressure_sealevel;temperature;humidity
50550;BME280;36505;52.512;13.460;2023-04-19T00:01:19;102243.16;;;5.59;66.46
50550;BME280;36505;52.512;13.460;2023-04-19T00:03:45;102242.78;;;5.62;66.13
50550;BME280;36505;52.512;13.460;2023-04-19T00:06:10;102252.97;;;5.60;65.95
50550;BME280;36505;52.512;13.460;2023-04-19T00:08:39;102243.16;;;5.59;65.39
50550;BME280;36505;52.512;13.460;2023-04-19T00:11:04;102252.81;;;5.62;65.07
50550;BME280;36505;52.512;13.460;2023-04-19T00:13:30;102257.91;;;5.65;65.83
50550;BME280;36505;52.512;13.460;2023-04-19T00:15:55;102240.06;;;5.62;64.81
50550;BME280;36505;52.512;13.460;2023-04-19T00:18:21;102244.47;;;5.71;64.04
50550;BME280;36505;52.512;13.460;2023-04-19T00:20:46;102238.88;;;5.73;63.92
50550;BME280;36505;52.512;13.460;2023-04-19T00:23:12;102237.47;;;5.77;63.34
50550;BME280;36505;52.512;13.460;2023-04-19T00:25:38;102236.97;;;5.73;62.89
50550;BME280;36505;52.512;13.460;2023-04-19T00:28:03;102234.78;;;5.69;63.42
50550;BME280;36505;52.512;13.460;2023-04-19T00:30:29;102235.28;;;5.72;62.60
50550;BME280;36505;52.512;13.460;2023-04-19T00:32:55;102242.78;;;5.70;62.91
50550;BME280;36505;52.512;13.460;2023-04-19T00:35:20;102244.97;;;5.67;61.77
50550;BME280;36505;52.512;13.460;2023-04-19T00:37:46;102243.47;;;5.64;62.22
50550;BME280;36505;52.512;13.460;2023-04-19T00:40:11;102239.75;;;5.57;62.45
50550;BME280;36505;52.512;13.460;2023-04-19T00:42:36;102240.78;;;5.56;62.01
50550;BME280;36505;52.512;13.460;2023-04-19T00:45:02;102242.34;;;5.50;61.88
50550;BME280;36505;52.512;13.460;2023-04-19T00:47:28;102240.97;;;5.46;62.01
50550;BME280;36505;52.512;13.460;2023-04-19T00:49:54;102238.78;;;5.50;61.96
50550;BME280;36505;52.512;13.460;2023-04-19T00:52:21;102236.75;;;5.44;61.48
50550;BME280;36505;52.512;13.460;2023-04-19T00:54:46;102238.97;;;5.40;61.92
50550;BME280;36505;52.512;13.460;2023-04-19T00:57:14;102242.34;;;5.42;62.04
50550;BME280;36505;52.512;13.460;2023-04-19T00:59:39;102238.78;;;5.42;61.41
50550;BME280;36505;52.512;13.460;2023-04-19T01:02:05;102227.94;;;5.34;61.81
50550;BME280;36505;52.512;13.460;2023-04-19T01:04:31;102231.69;;;5.33;61.79
50550;BME280;36505;52.512;13.460;2023-04-19T01:06:57;102228.63;;;5.28;61.86
50550;BME280;36505;52.512;13.460;2023-04-19T01:09:22;102236.47;;;5.31;62.09
50550;BME280;36505;52.512;13.460;2023-04-19T01:11:48;102234.44;;;5.25;61.73
50550;BME280;36505;52.512;13.460;2023-04-19T01:14:13;102235.47;;;5.15;61.61
50550;BME280;36505;52.512;13.460;2023-04-19T01:16:38;102243.97;;;5.04;62.04
50550;BME280;36505;52.512;13.460;2023-04-19T01:19:04;102240.56;;;5.02;61.80
50550;BME280;36505;52.512;13.460;2023-04-19T01:21:29;102219.22;;;4.91;62.44
50550;BME280;36505;52.512;13.460;2023-04-19T01:23:56;102231.44;;;4.95;62.38
50550;BME280;36505;52.512;13.460;2023-04-19T01:26:23;102245.69;;;4.89;62.61
50550;BME280;36505;52.512;13.460;2023-04-19T01:28:49;102237.53;;;4.89;62.56
50550;BME280;36505;52.512;13.460;2023-04-19T01:31:14;102231.44;;;4.79;62.69
50550;BME280;36505;52.512;13.460;2023-04-19T01:33:40;102235.19;;;4.70;62.82
50550;BME280;36505;52.512;13.460;2023-04-19T01:36:05;102234.31;;;4.61;63.20
50550;BME280;36505;52.512;13.460;2023-04-19T01:38:31;102227.03;;;4.62;63.75
50550;BME280;36505;52.512;13.460;2023-04-19T01:40:56;102239.06;;;4.59;63.46
50550;BME280;36505;52.512;13.460;2023-04-19T01:43:22;102229.56;;;4.55;63.56
50550;BME280;36505;52.512;13.460;2023-04-19T01:45:47;102226.69;;;4.49;63.99
50550;BME280;36505;52.512;13.460;2023-04-19T01:48:13;102226.34;;;4.52;64.07
50550;BME280;36505;52.512;13.460;2023-04-19T01:50:38;102222.63;;;4.53;64.07
50550;BME280;36505;52.512;13.460;2023-04-19T01:53:03;102215.16;;;4.47;64.52
50550;BME280;36505;52.512;13.460;2023-04-19T01:55:29;102215.84;;;4.49;64.32
50550;BME280;36505;52.512;13.460;2023-04-19T01:57:54;102217.84;;;4.38;64.65
50550;BME280;36505;52.512;13.460;2023-04-19T02:00:20;102217.69;;;4.32;64.74
50550;BME280;36505;52.512;13.460;2023-04-19T02:02:46;102215.97;;;4.31;64.52
50550;BME280;36505;52.512;13.460;2023-04-19T02:05:11;102206.47;;;4.19;65.35
50550;BME280;36505;52.512;13.460;2023-04-19T02:07:37;102209.88;;;4.21;65.36
50550;BME280;36505;52.512;13.460;2023-04-19T02:10:03;102212.41;;;4.14;65.56
50550;BME280;36505;52.512;13.460;2023-04-19T02:12:30;102209.00;;;4.12;65.97
50550;BME280;36505;52.512;13.460;2023-04-19T02:14:56;102210.03;;;4.11;65.65
50550;BME280;36505;52.512;13.460;2023-04-19T02:17:23;102212.72;;;4.11;65.73
50550;BME280;36505;52.512;13.460;2023-04-19T02:19:49;102209.53;;;4.08;66.50
50550;BME280;36505;52.512;13.460;2023-04-19T02:22:14;102196.28;;;4.05;66.60
50550;BME280;36505;52.512;13.460;2023-04-19T02:24:39;102196.47;;;3.95;66.85
50550;BME280;36505;52.512;13.460;2023-04-19T02:27:05;102210.19;;;4.02;66.96
50550;BME280;36505;52.512;13.460;2023-04-19T02:29:31;102197.81;;;3.99;66.86
50550;BME280;36505;52.512;13.460;2023-04-19T02:31:56;102201.53;;;3.98;66.97
50550;BME280;36505;52.512;13.460;2023-04-19T02:34:22;102193.38;;;3.90;67.64
50550;BME280;36505;52.512;13.460;2023-04-19T02:36:47;102184.91;;;3.85;68.03
50550;BME280;36505;52.512;13.460;2023-04-19T02:39:12;102191.66;;;3.81;67.41
50550;BME280;36505;52.512;13.460;2023-04-19T02:41:38;102194.53;;;3.79;68.02
50550;BME280;36505;52.512;13.460;2023-04-19T02:44:03;102185.56;;;3.79;68.61
50550;BME280;36505;52.512;13.460;2023-04-19T02:46:29;102192.34;;;3.75;68.54
50550;BME280;36505;52.512;13.460;2023-04-19T02:48:54;102184.22;;;3.75;68.52
50550;BME280;36505;52.512;13.460;2023-04-19T02:51:20;102185.88;;;3.76;68.62
50550;BME280;36505;52.512;13.460;2023-04-19T02:53:45;102185.38;;;3.72;68.92
50550;BME280;36505;52.512;13.460;2023-04-19T02:56:10;102173.50;;;3.65;69.39
50550;BME280;36505;52.512;13.460;2023-04-19T02:58:36;102177.91;;;3.66;70.13
50550;BME280;36505;52.512;13.460;2023-04-19T03:01:01;102170.63;;;3.67;69.68
50550;BME280;36505;52.512;13.460;2023-04-19T03:03:27;102170.78;;;3.65;70.31
50550;BME280;36505;52.512;13.460;2023-04-19T03:05:52;102166.72;;;3.61;70.59
50550;BME280;36505;52.512;13.460;2023-04-19T03:08:18;102171.94;;;3.63;70.83
50550;BME280;36505;52.512;13.460;2023-04-19T03:10:43;102169.25;;;3.63;70.80
50550;BME280;36505;52.512;13.460;2023-04-19T03:13:08;102165.03;;;3.60;71.15
50550;BME280;36505;52.512;13.460;2023-04-19T03:15:34;102159.91;;;3.57;71.32
50550;BME280;36505;52.512;13.460;2023-04-19T03:18:00;102149.59;;;3.52;71.40
50550;BME280;36505;52.512;13.460;2023-04-19T03:20:25;102158.91;;;3.58;71.37
50550;BME280;36505;52.512;13.460;2023-04-19T03:22:50;102151.78;;;3.57;71.52
50550;BME280;36505;52.512;13.460;2023-04-19T03:25:16;102153.00;;;3.54;71.75
50550;BME280;36505;52.512;13.460;2023-04-19T03:27:41;102151.28;;;3.53;71.96
50550;BME280;36505;52.512;13.460;2023-04-19T03:30:10;102143.66;;;3.57;71.88
50550;BME280;36505;52.512;13.460;2023-04-19T03:32:36;102145.38;;;3.58;71.87
50550;BME280;36505;52.512;13.460;2023-04-19T03:35:01;102137.09;;;3.60;71.79
50550;BME280;36505;52.512;13.460;2023-04-19T03:37:27;102140.81;;;3.58;71.86
50550;BME280;36505;52.512;13.460;2023-04-19T03:39:52;102139.94;;;3.58;71.85
50550;BME280;36505;52.512;13.460;2023-04-19T03:42:17;102134.03;;;3.54;72.34
50550;BME280;36505;52.512;13.460;2023-04-19T03:44:43;102134.34;;;3.51;72.12
50550;BME280;36505;52.512;13.460;2023-04-19T03:47:08;102123.47;;;3.43;72.96
50550;BME280;36505;52.512;13.460;2023-04-19T03:49:33;102136.22;;;3.51;73.08
50550;BME280;36505;52.512;13.460;2023-04-19T03:51:59;102142.47;;;3.51;73.15
50550;BME280;36505;52.512;13.460;2023-04-19T03:54:24;102132.34;;;3.53;73.45
50550;BME280;36505;52.512;13.460;2023-04-19T03:56:49;102132.50;;;3.52;73.44
50550;BME280;36505;52.512;13.460;2023-04-19T03:59:15;102126.38;;;3.50;74.12
50550;BME280;36505;52.512;13.460;2023-04-19T04:01:40;102131.78;;;3.50;74.11
50550;BME280;36505;52.512;13.460;2023-04-19T04:04:07;102133.84;;;3.48;74.61
50550;BME280;36505;52.512;13.460;2023-04-19T04:06:33;102125.72;;;3.48;74.54
50550;BME280;36505;52.512;13.460;2023-04-19T04:08:58;102119.09;;;3.50;74.57
50550;BME280;36505;52.512;13.460;2023-04-19T04:11:24;102125.22;;;3.52;75.31
50550;BME280;36505;52.512;13.460;2023-04-19T04:13:50;102123.34;;;3.53;74.98
50550;BME280;36505;52.512;13.460;2023-04-19T04:16:15;102126.72;;;3.55;75.45
50550;BME280;36505;52.512;13.460;2023-04-19T04:18:41;102108.78;;;3.46;75.58
50550;BME280;36505;52.512;13.460;2023-04-19T04:21:06;102118.94;;;3.52;75.84
50550;BME280;36505;52.512;13.460;2023-04-19T04:23:32;102126.91;;;3.53;75.57
50550;BME280;36505;52.512;13.460;2023-04-19T04:25:58;102112.19;;;3.56;76.27
50550;BME280;36505;52.512;13.460;2023-04-19T04:28:28;102113.41;;;3.62;75.79
50550;BME280;36505;52.512;13.460;2023-04-19T04:30:54;102116.28;;;3.68;76.04
50550;BME280;36505;52.512;13.460;2023-04-19T04:33:25;102114.31;;;3.94;75.19
50550;BME280;36505;52.512;13.460;2023-04-19T04:35:51;102106.16;;;4.43;73.44
50550;BME280;36505;52.512;13.460;2023-04-19T04:38:18;102093.84;;;4.96;71.67
50550;BME280;36505;52.512;13.460;2023-04-19T04:40:48;102100.97;;;5.36;70.11
50550;BME280;36505;52.512;13.460;2023-04-19T04:43:13;102089.97;;;4.90;71.15
50550;BME280;36505;52.512;13.460;2023-04-19T04:45:39;102101.22;;;4.55;72.75
50550;BME280;36505;52.512;13.460;2023-04-19T04:48:04;102101.16;;;4.79;72.71
50550;BME280;36505;52.512;13.460;2023-04-19T04:50:30;102099.28;;;4.88;72.45
50550;BME280;36505;52.512;13.460;2023-04-19T04:52:55;102085.88;;;4.86;72.46
50550;BME280;36505;52.512;13.460;2023-04-19T04:55:20;102096.03;;;4.92;72.26
50550;BME280;36505;52.512;13.460;2023-04-19T04:57:46;102085.44;;;5.13;71.84
50550;BME280;36505;52.512;13.460;2023-04-19T05:00:12;102080.78;;;5.61;69.84
50550;BME280;36505;52.512;13.460;2023-04-19T05:02:38;102082.03;;;6.42;67.10
50550;BME280;36505;52.512;13.460;2023-04-19T05:05:03;102089.69;;;7.05;64.92
50550;BME280;36505;52.512;13.460;2023-04-19T05:07:28;102090.63;;;6.83;65.08
50550;BME280;36505;52.512;13.460;2023-04-19T05:09:54;102081.69;;;7.69;62.92
50550;BME280;36505;52.512;13.460;2023-04-19T05:12:19;102075.34;;;8.81;59.37
50550;BME280;36505;52.512;13.460;2023-04-19T05:14:45;102067.25;;;10.22;54.96
50550;BME280;36505;52.512;13.460;2023-04-19T05:17:10;102069.03;;;11.59;51.69
50550;BME280;36505;52.512;13.460;2023-04-19T05:19:35;102069.78;;;12.10;48.90
50550;BME280;36505;52.512;13.460;2023-04-19T05:22:01;102067.13;;;12.90;46.92
50550;BME280;36505;52.512;13.460;2023-04-19T05:24:26;102060.56;;;12.91;46.18
50550;BME280;36505;52.512;13.460;2023-04-19T05:26:51;102058.09;;;12.15;48.00
50550;BME280;36505;52.512;13.460;2023-04-19T05:29:17;102055.25;;;12.96;46.88
50550;BME280;36505;52.512;13.460;2023-04-19T05:31:42;102044.75;;;13.59;44.86
50550;BME280;36505;52.512;13.460;2023-04-19T05:34:08;102047.00;;;13.32;44.95
50550;BME280;36505;52.512;13.460;2023-04-19T05:36:33;102045.78;;;12.49;47.00
50550;BME280;36505;52.512;13.460;2023-04-19T05:38:59;102053.53;;;12.34;48.11
50550;BME280;36505;52.512;13.460;2023-04-19T05:41:25;102056.72;;;12.31;48.39
50550;BME280;36505;52.512;13.460;2023-04-19T05:43:50;102047.03;;;12.53;47.63
50550;BME280;36505;52.512;13.460;2023-04-19T05:46:16;102041.44;;;13.21;45.97
50550;BME280;36505;52.512;13.460;2023-04-19T05:48:41;102048.00;;;13.98;44.34
50550;BME280;36505;52.512;13.460;2023-04-19T05:51:06;102042.06;;;15.17;41.68
50550;BME280;36505;52.512;13.460;2023-04-19T05:53:32;102047.28;;;15.99;39.89
50550;BME280;36505;52.512;13.460;2023-04-19T05:55:57;102043.13;;;16.46;38.10
50550;BME280;36505;52.512;13.460;2023-04-19T05:58:23;102033.13;;;16.79;37.54
50550;BME280;36505;52.512;13.460;2023-04-19T06:00:50;102033.13;;;17.39;36.38
50550;BME280;36505;52.512;13.460;2023-04-19T06:03:15;102034.28;;;17.65;35.36
50550;BME280;36505;52.512;13.460;2023-04-19T06:05:41;102045.41;;;17.97;35.08
50550;BME280;36505;52.512;13.460;2023-04-19T06:08:07;102032.25;;;18.46;34.49
50550;BME280;36505;52.512;13.460;2023-04-19T06:10:34;102023.81;;;18.63;32.82
50550;BME280;36505;52.512;13.460;2023-04-19T06:12:59;102030.47;;;17.71;34.31
50550;BME280;36505;52.512;13.460;2023-04-19T06:15:25;102027.03;;;18.17;34.34
50550;BME280;36505;52.512;13.460;2023-04-19T06:17:51;102035.91;;;18.51;34.12
50550;BME280;36505;52.512;13.460;2023-04-19T06:20:16;102029.13;;;19.16;33.27
50550;BME280;36505;52.512;13.460;2023-04-19T06:22:43;102028.50;;;19.77;31.16
50550;BME280;36505;52.512;13.460;2023-04-19T06:25:09;102029.81;;;19.54;31.44
50550;BME280;36505;52.512;13.460;2023-04-19T06:27:34;102028.19;;;19.63;31.56
50550;BME280;36505;52.512;13.460;2023-04-19T06:30:00;102022.06;;;19.61;31.43
50550;BME280;36505;52.512;13.460;2023-04-19T06:32:25;102022.16;;;20.11;31.27
50550;BME280;36505;52.512;13.460;2023-04-19T06:34:51;102032.16;;;20.18;30.72
50550;BME280;36505;52.512;13.460;2023-04-19T06:37:16;102023.50;;;19.89;30.73
50550;BME280;36505;52.512;13.460;2023-04-19T06:39:42;102022.94;;;19.71;30.81
50550;BME280;36505;52.512;13.460;2023-04-19T06:42:07;102024.09;;;19.91;30.49
50550;BME280;36505;52.512;13.460;2023-04-19T06:44:32;102016.03;;;20.09;30.31
50550;BME280;36505;52.512;13.460;2023-04-19T06:46:58;102021.00;;;20.83;30.71
50550;BME280;36505;52.512;13.460;2023-04-19T06:49:23;102017.00;;;21.15;29.58
50550;BME280;36505;52.512;13.460;2023-04-19T06:51:48;102012.16;;;21.46;28.75
50550;BME280;36505;52.512;13.460;2023-04-19T06:54:14;102006.81;;;21.93;28.25
50550;BME280;36505;52.512;13.460;2023-04-19T06:56:47;101995.34;;;22.34;27.71
50550;BME280;36505;52.512;13.460;2023-04-19T06:59:13;101994.03;;;22.55;27.50
50550;BME280;36505;52.512;13.460;2023-04-19T07:01:41;101978.63;;;22.87;26.45
50550;BME280;36505;52.512;13.460;2023-04-19T07:04:07;101986.22;;;23.29;25.99
50550;BME280;36505;52.512;13.460;2023-04-19T07:06:34;101983.22;;;22.72;24.89
50550;BME280;36505;52.512;13.460;2023-04-19T07:08:59;101976.81;;;22.48;26.04
50550;BME280;36505;52.512;13.460;2023-04-19T07:11:25;101972.34;;;22.76;26.49
50550;BME280;36505;52.512;13.460;2023-04-19T07:13:50;101972.31;;;23.66;25.18
50550;BME280;36505;52.512;13.460;2023-04-19T07:16:16;101964.13;;;23.70;24.86
50550;BME280;36505;52.512;13.460;2023-04-19T07:18:41;101955.53;;;23.66;24.39
50550;BME280;36505;52.512;13.460;2023-04-19T07:21:08;101968.22;;;23.77;24.73
50550;BME280;36505;52.512;13.460;2023-04-19T07:23:33;101960.59;;;23.64;23.31
50550;BME280;36505;52.512;13.460;2023-04-19T07:25:58;101953.31;;;23.63;23.75
50550;BME280;36505;52.512;13.460;2023-04-19T07:28:24;101950.50;;;23.82;23.27
50550;BME280;36505;52.512;13.460;2023-04-19T07:30:49;101952.72;;;23.66;23.58
50550;BME280;36505;52.512;13.460;2023-04-19T07:33:15;101952.31;;;23.35;22.91
50550;BME280;36505;52.512;13.460;2023-04-19T07:35:41;101942.25;;;23.90;22.63
50550;BME280;36505;52.512;13.460;2023-04-19T07:38:06;101948.50;;;24.20;22.54
50550;BME280;36505;52.512;13.460;2023-04-19T07:40:31;101944.81;;;24.38;22.22
50550;BME280;36505;52.512;13.460;2023-04-19T07:42:57;101934.47;;;24.66;22.02
50550;BME280;36505;52.512;13.460;2023-04-19T07:45:22;101939.34;;;24.47;21.32
50550;BME280;36505;52.512;13.460;2023-04-19T07:47:48;101916.13;;;24.60;21.66
50550;BME280;36505;52.512;13.460;2023-04-19T07:50:13;101925.25;;;24.65;21.63
50550;BME280;36505;52.512;13.460;2023-04-19T07:52:39;101931.97;;;24.64;21.03
50550;BME280;36505;52.512;13.460;2023-04-19T07:55:05;101919.03;;;24.82;21.30
50550;BME280;36505;52.512;13.460;2023-04-19T07:57:31;101928.75;;;24.85;20.73
50550;BME280;36505;52.512;13.460;2023-04-19T07:59:56;101921.63;;;24.19;21.18
50550;BME280;36505;52.512;13.460;2023-04-19T08:02:26;101927.50;;;24.22;21.10
50550;BME280;36505;52.512;13.460;2023-04-19T08:04:52;101916.91;;;24.33;21.21
50550;BME280;36505;52.512;13.460;2023-04-19T08:07:18;101912.19;;;24.74;22.08
50550;BME280;36505;52.512;13.460;2023-04-19T08:09:43;101923.03;;;24.35;22.13
50550;BME280;36505;52.512;13.460;2023-04-19T08:12:09;101909.91;;;23.84;22.06
50550;BME280;36505;52.512;13.460;2023-04-19T08:14:34;101904.09;;;24.13;21.94
50550;BME280;36505;52.512;13.460;2023-04-19T08:17:00;101905.25;;;24.12;22.04
50550;BME280;36505;52.512;13.460;2023-04-19T08:19:25;101893.50;;;24.84;20.63
50550;BME280;36505;52.512;13.460;2023-04-19T08:21:50;101892.72;;;25.19;20.42
50550;BME280;36505;52.512;13.460;2023-04-19T08:24:16;101907.25;;;25.71;20.18
50550;BME280;36505;52.512;13.460;2023-04-19T08:26:41;101905.13;;;25.99;19.30
50550;BME280;36505;52.512;13.460;2023-04-19T08:29:06;101907.28;;;26.02;19.65
50550;BME280;36505;52.512;13.460;2023-04-19T08:31:32;101895.88;;;25.98;19.03
50550;BME280;36505;52.512;13.460;2023-04-19T08:33:57;101901.44;;;26.20;19.60
50550;BME280;36505;52.512;13.460;2023-04-19T08:36:24;101903.00;;;26.04;19.74
50550;BME280;36505;52.512;13.460;2023-04-19T08:38:50;101890.75;;;26.00;20.36
50550;BME280;36505;52.512;13.460;2023-04-19T08:41:17;101894.66;;;24.96;20.12
50550;BME280;36505;52.512;13.460;2023-04-19T08:43:44;101909.66;;;24.32;20.58
50550;BME280;36505;52.512;13.460;2023-04-19T08:46:11;101901.81;;;24.01;20.93
50550;BME280;36505;52.512;13.460;2023-04-19T08:48:37;101904.06;;;24.46;21.85
50550;BME280;36505;52.512;13.460;2023-04-19T08:51:03;101891.41;;;24.34;20.84
50550;BME280;36505;52.512;13.460;2023-04-19T08:53:29;101892.13;;;22.58;22.98
50550;BME280;36505;52.512;13.460;2023-04-19T08:55:55;101886.53;;;20.83;25.18
50550;BME280;36505;52.512;13.460;2023-04-19T08:58:26;101893.38;;;19.35;26.50
50550;BME280;36505;52.512;13.460;2023-04-19T09:00:54;101902.31;;;19.47;26.73
50550;BME280;36505;52.512;13.460;2023-04-19T09:03:20;101889.69;;;18.00;28.74
50550;BME280;36505;52.512;13.460;2023-04-19T09:05:46;101872.44;;;20.59;26.25
50550;BME280;36505;52.512;13.460;2023-04-19T09:10:53;101867.28;;;22.32;23.25
50550;BME280;36505;52.512;13.460;2023-04-19T09:13:18;101869.22;;;23.41;22.13
50550;BME280;36505;52.512;13.460;2023-04-19T09:15:44;101853.19;;;23.65;22.08
50550;BME280;36505;52.512;13.460;2023-04-19T09:18:10;101852.94;;;24.67;20.85
50550;BME280;36505;52.512;13.460;2023-04-19T09:20:37;101841.88;;;24.02;20.85
50550;BME280;36505;52.512;13.460;2023-04-19T09:23:04;101840.78;;;24.99;20.44
50550;BME280;36505;52.512;13.460;2023-04-19T09:25:30;101833.41;;;25.84;19.44
50550;BME280;36505;52.512;13.460;2023-04-19T09:28:10;101838.63;;;25.18;20.87
50550;BME280;36505;52.512;13.460;2023-04-19T09:30:36;101838.00;;;24.45;20.66
50550;BME280;36505;52.512;13.460;2023-04-19T09:33:02;101839.09;;;21.47;23.76
50550;BME280;36505;52.512;13.460;2023-04-19T09:38:06;101821.75;;;21.16;24.37
50550;BME280;36505;52.512;13.460;2023-04-19T09:40:32;101839.44;;;21.41;24.58
50550;BME280;36505;52.512;13.460;2023-04-19T09:42:57;101827.00;;;21.62;23.85
50550;BME280;36505;52.512;13.460;2023-04-19T09:45:26;101835.91;;;19.81;26.59
50550;BME280;36505;52.512;13.460;2023-04-19T09:48:03;101832.22;;;17.85;28.13
50550;BME280;36505;52.512;13.460;2023-04-19T09:50:29;101832.44;;;16.23;30.70
50550;BME280;36505;52.512;13.460;2023-04-19T09:52:56;101828.06;;;15.88;31.60
50550;BME280;36505;52.512;13.460;2023-04-19T09:55:22;101827.03;;;15.27;32.16
50550;BME280;36505;52.512;13.460;2023-04-19T09:57:48;101841.56;;;15.06;32.88
50550;BME280;36505;52.512;13.460;2023-04-19T10:00:13;101835.69;;;15.02;33.76
50550;BME280;36505;52.512;13.460;2023-04-19T10:02:39;101821.50;;;14.82;34.45
50550;BME280;36505;52.512;13.460;2023-04-19T10:05:09;101818.41;;;14.50;33.85
50550;BME280;36505;52.512;13.460;2023-04-19T10:07:35;101822.97;;;14.45;34.63
50550;BME280;36505;52.512;13.460;2023-04-19T10:10:02;101807.19;;;14.69;33.97
50550;BME280;36505;52.512;13.460;2023-04-19T10:12:30;101819.97;;;14.75;34.32
50550;BME280;36505;52.512;13.460;2023-04-19T10:14:56;101804.28;;;14.35;35.12
50550;BME280;36505;52.512;13.460;2023-04-19T10:17:22;101810.34;;;13.85;35.40
50550;BME280;36505;52.512;13.460;2023-04-19T10:19:51;101803.53;;;13.76;36.42
50550;BME280;36505;52.512;13.460;2023-04-19T10:22:19;101831.28;;;13.75;36.22
50550;BME280;36505;52.512;13.460;2023-04-19T10:25:10;101792.75;;;13.63;36.57
50550;BME280;36505;52.512;13.460;2023-04-19T10:27:37;101772.66;;;13.74;37.05
50550;BME280;36505;52.512;13.460;2023-04-19T10:30:03;101799.31;;;13.85;36.76
50550;BME280;36505;52.512;13.460;2023-04-19T10:35:16;101781.63;;;13.23;37.67
50550;BME280;36505;52.512;13.460;2023-04-19T10:38:10;101799.69;;;13.54;38.28
50550;BME280;36505;52.512;13.460;2023-04-19T10:40:55;101788.22;;;13.69;38.46
50550;BME280;36505;52.512;13.460;2023-04-19T10:43:28;101694.78;;;13.27;37.07
50550;BME280;36505;52.512;13.460;2023-04-19T10:45:57;101789.16;;;13.98;37.60
50550;BME280;36505;52.512;13.460;2023-04-19T10:51:02;101774.06;;;13.89;37.44
50550;BME280;36505;52.512;13.460;2023-04-19T10:53:47;101793.81;;;13.74;37.99
50550;BME280;36505;52.512;13.460;2023-04-19T10:56:14;101790.38;;;13.43;37.56
50550;BME280;36505;52.512;13.460;2023-04-19T11:01:42;101785.19;;;12.82;38.77
50550;BME280;36505;52.512;13.460;2023-04-19T11:04:12;101782.88;;;13.09;38.61
50550;BME280;36505;52.512;13.460;2023-04-19T11:06:58;101779.09;;;13.22;38.95
50550;BME280;36505;52.512;13.460;2023-04-19T11:09:37;101769.34;;;12.96;38.57
50550;BME280;36505;52.512;13.460;2023-04-19T11:12:07;101764.78;;;13.01;38.18
50550;BME280;36505;52.512;13.460;2023-04-19T11:14:46;101772.25;;;13.24;39.16
50550;BME280;36505;52.512;13.460;2023-04-19T11:17:24;101764.50;;;13.33;38.97
50550;BME280;36505;52.512;13.460;2023-04-19T11:20:01;101755.06;;;13.52;38.90
50550;BME280;36505;52.512;13.460;2023-04-19T11:22:40;101763.78;;;13.84;38.32
50550;BME280;36505;52.512;13.460;2023-04-19T11:25:22;101761.88;;;13.84;37.56
50550;BME280;36505;52.512;13.460;2023-04-19T11:27:51;101756.47;;;13.20;37.79
50550;BME280;36505;52.512;13.460;2023-04-19T11:30:19;101751.88;;;13.02;38.68
50550;BME280;36505;52.512;13.460;2023-04-19T11:32:48;101767.13;;;12.86;39.59
50550;BME280;36505;52.512;13.460;2023-04-19T11:35:14;101745.69;;;12.65;39.20
50550;BME280;36505;52.512;13.460;2023-04-19T11:37:40;101756.97;;;12.75;39.96
50550;BME280;36505;52.512;13.460;2023-04-19T11:40:06;101738.91;;;12.79;40.24
50550;BME280;36505;52.512;13.460;2023-04-19T11:42:32;101707.22;;;12.35;39.35
50550;BME280;36505;52.512;13.460;2023-04-19T11:44:58;101731.06;;;12.23;40.75
50550;BME280;36505;52.512;13.460;2023-04-19T11:47:25;101746.00;;;12.09;40.39
50550;BME280;36505;52.512;13.460;2023-04-19T11:49:50;101750.53;;;12.03;41.06
50550;BME280;36505;52.512;13.460;2023-04-19T11:52:24;101743.06;;;11.92;40.70
50550;BME280;36505;52.512;13.460;2023-04-19T11:54:51;101712.63;;;11.75;41.50
50550;BME280;36505;52.512;13.460;2023-04-19T11:57:29;101726.22;;;12.07;40.51
50550;BME280;36505;52.512;13.460;2023-04-19T12:00:07;101724.09;;;12.39;41.38
50550;BME280;36505;52.512;13.460;2023-04-19T12:02:38;101718.69;;;12.62;39.89
50550;BME280;36505;52.512;13.460;2023-04-19T12:07:34;101695.16;;;12.78;40.01
50550;BME280;36505;52.512;13.460;2023-04-19T12:10:08;101713.63;;;13.00;39.53
50550;BME280;36505;52.512;13.460;2023-04-19T12:12:34;101705.38;;;12.89;39.67
50550;BME280;36505;52.512;13.460;2023-04-19T12:15:00;101726.97;;;12.85;39.34
50550;BME280;36505;52.512;13.460;2023-04-19T12:17:25;101720.75;;;12.78;39.03
50550;BME280;36505;52.512;13.460;2023-04-19T12:19:51;101714.94;;;12.56;39.10
50550;BME280;36505;52.512;13.460;2023-04-19T12:22:18;101703.88;;;12.33;38.95
50550;BME280;36505;52.512;13.460;2023-04-19T12:24:52;101707.53;;;12.57;39.84
50550;BME280;36505;52.512;13.460;2023-04-19T12:27:17;101714.00;;;12.62;40.40
50550;BME280;36505;52.512;13.460;2023-04-19T12:29:43;101701.88;;;12.40;40.44
50550;BME280;36505;52.512;13.460;2023-04-19T12:32:09;101682.19;;;12.43;40.25
50550;BME280;36505;52.512;13.460;2023-04-19T12:34:35;101682.88;;;12.39;41.91
50550;BME280;36505;52.512;13.460;2023-04-19T12:37:01;101695.47;;;12.58;40.51
50550;BME280;36505;52.512;13.460;2023-04-19T12:39:28;101658.91;;;12.46;39.78
50550;BME280;36505;52.512;13.460;2023-04-19T12:41:54;101697.69;;;12.79;40.41
50550;BME280;36505;52.512;13.460;2023-04-19T12:44:19;101677.38;;;12.80;38.97
50550;BME280;36505;52.512;13.460;2023-04-19T12:46:44;101657.84;;;12.58;38.67
50550;BME280;36505;52.512;13.460;2023-04-19T12:49:10;101650.34;;;12.54;39.34
50550;BME280;36505;52.512;13.460;2023-04-19T12:51:35;101652.47;;;12.52;39.08
50550;BME280;36505;52.512;13.460;2023-04-19T12:54:01;101663.00;;;12.55;40.11
50550;BME280;36505;52.512;13.460;2023-04-19T12:56:27;101648.75;;;12.46;38.63